Acapulco Jet — IWUM — position and weather

sailwx.info

Track history (hours):
 
Tides and Currents Weather Stations Pressure Air Temp Water Temp Dewpoint Dewpoint Depression Visibility Wind Speed Wind Dir Waves Ship Positions

Acapulco Jet

Last reported at 2014-Aug-31 17:24 UTC. Time now 2014-Sep-01 21:21 UTC.
Position N 42°52' E 010°26'.

Length 35 m; draft 1.2 m.

Type: High speed craft. MMSI: 247050100.

Date/timePositionNaut miles runAvg speedWind from/ knotsBaromVisibWave heightAir tempDewpointWater temp
2014-Aug-31 17:24N 42°52' E 010°26'0 0.2
2014-Aug-31 16:28N 42°52' E 010°26'5 3.8
2014-Aug-31 15:08N 42°54' E 010°32'1118.8
2014-Aug-31 14:33N 42°49' E 010°20'2 2.0
2014-Aug-31 13:33N 42°50' E 010°22'3 0.1
2014-Aug-30 17:33N 42°52' E 010°24'1 1.2
2014-Aug-30 16:32N 42°52' E 010°25'7 5.0
2014-Aug-30 15:07N 42°56' E 010°34'9 5.3
2014-Aug-30 13:26N 42°51' E 010°23'0 0.1
2014-Aug-30 11:20N 42°51' E 010°23'3 1.7
2014-Aug-30 09:29N 42°52' E 010°27'6 3.0
2014-Aug-30 07:22N 42°49' E 010°20'7 0.5
2014-Aug-29 16:32N 42°53' E 010°27'6 1.9
2014-Aug-29 13:33N 42°49' E 010°21'4 2.0
2014-Aug-29 11:32N 42°52' E 010°26'1 0.1
2014-Aug-28 17:33N 42°52' E 010°24'1 1.2
2014-Aug-28 16:33N 42°52' E 010°26'3 1.0
2014-Aug-28 13:33N 42°50' E 010°22'3 1.4
2014-Aug-28 11:31N 42°52' E 010°25'0 0.0
2014-Aug-28 09:31N 42°52' E 010°26'2 0.8
2014-Aug-28 07:13N 42°51' E 010°23'1 0.0
2014-Aug-26 13:33N 42°50' E 010°22'3 1.6
2014-Aug-26 11:33N 42°52' E 010°26'  
Track history (hours):
 
Tides and Currents Weather Stations Pressure Air Temp Water Temp Dewpoint Dewpoint Depression Visibility Wind Speed Wind Dir Waves Ship Positions

Acapulco Jet

Last reported at 2014-Aug-31 17:24 UTC. Time now 2014-Sep-01 21:21 UTC.
Position N 42°52' E 010°26'.

Length 35 m; draft 1.2 m.

Type: High speed craft. MMSI: 247050100.

Date/timePositionNaut miles runAvg speedWind from/ knotsBaromVisibWave heightAir tempDewpointWater temp
2014-Aug-31 17:24N 42°52' E 010°26'0 0.2
2014-Aug-31 16:28N 42°52' E 010°26'5 3.8
2014-Aug-31 15:08N 42°54' E 010°32'1118.8
2014-Aug-31 14:33N 42°49' E 010°20'2 2.0
2014-Aug-31 13:33N 42°50' E 010°22'3 0.1
2014-Aug-30 17:33N 42°52' E 010°24'1 1.2
2014-Aug-30 16:32N 42°52' E 010°25'7 5.0
2014-Aug-30 15:07N 42°56' E 010°34'9 5.3
2014-Aug-30 13:26N 42°51' E 010°23'0 0.1
2014-Aug-30 11:20N 42°51' E 010°23'3 1.7
2014-Aug-30 09:29N 42°52' E 010°27'6 3.0
2014-Aug-30 07:22N 42°49' E 010°20'7 0.5
2014-Aug-29 16:32N 42°53' E 010°27'6 1.9
2014-Aug-29 13:33N 42°49' E 010°21'4 2.0
2014-Aug-29 11:32N 42°52' E 010°26'1 0.1
2014-Aug-28 17:33N 42°52' E 010°24'1 1.2
2014-Aug-28 16:33N 42°52' E 010°26'3 1.0
2014-Aug-28 13:33N 42°50' E 010°22'3 1.4
2014-Aug-28 11:31N 42°52' E 010°25'0 0.0
2014-Aug-28 09:31N 42°52' E 010°26'2 0.8
2014-Aug-28 07:13N 42°51' E 010°23'1 0.0
2014-Aug-26 13:33N 42°50' E 010°22'3 1.6
2014-Aug-26 11:33N 42°52' E 010°26'  

Dump ship's entire track history